sensor_id;sensor_type;location;lat;lon;timestamp;temperature;humidity
22908;DHT22;11620;50.050;8.690;2023-12-14T00:00:35;5.70;99.90
22908;DHT22;11620;50.050;8.690;2023-12-14T00:03:22;5.70;99.90
22908;DHT22;11620;50.050;8.690;2023-12-14T00:06:08;5.60;99.90
22908;DHT22;11620;50.050;8.690;2023-12-14T00:08:54;5.60;99.90
22908;DHT22;11620;50.050;8.690;2023-12-14T00:11:41;5.60;99.90
22908;DHT22;11620;50.050;8.690;2023-12-14T00:14:27;5.60;99.90
22908;DHT22;11620;50.050;8.690;2023-12-14T00:17:13;5.60;99.90
22908;DHT22;11620;50.050;8.690;2023-12-14T00:20:00;5.60;99.90
22908;DHT22;11620;50.050;8.690;2023-12-14T00:22:46;5.60;99.90
22908;DHT22;11620;50.050;8.690;2023-12-14T00:25:33;5.50;99.90
22908;DHT22;11620;50.050;8.690;2023-12-14T00:28:20;5.50;99.90
22908;DHT22;11620;50.050;8.690;2023-12-14T00:31:06;5.50;99.90
22908;DHT22;11620;50.050;8.690;2023-12-14T00:33:52;5.50;99.90
22908;DHT22;11620;50.050;8.690;2023-12-14T00:36:39;5.40;99.90
22908;DHT22;11620;50.050;8.690;2023-12-14T00:39:25;5.40;99.90
22908;DHT22;11620;50.050;8.690;2023-12-14T00:42:11;5.40;99.90
22908;DHT22;11620;50.050;8.690;2023-12-14T00:44:58;5.30;99.90
22908;DHT22;11620;50.050;8.690;2023-12-14T00:47:44;5.30;99.90
22908;DHT22;11620;50.050;8.690;2023-12-14T00:50:30;5.20;99.90
22908;DHT22;11620;50.050;8.690;2023-12-14T00:53:17;5.20;99.90
22908;DHT22;11620;50.050;8.690;2023-12-14T00:56:03;5.20;99.90
22908;DHT22;11620;50.050;8.690;2023-12-14T00:58:49;5.20;99.90
22908;DHT22;11620;50.050;8.690;2023-12-14T01:01:36;5.20;99.90
22908;DHT22;11620;50.050;8.690;2023-12-14T01:04:22;5.20;99.90
22908;DHT22;11620;50.050;8.690;2023-12-14T01:07:08;5.20;99.90
22908;DHT22;11620;50.050;8.690;2023-12-14T01:09:55;5.10;99.90
22908;DHT22;11620;50.050;8.690;2023-12-14T01:12:41;5.10;99.90
22908;DHT22;11620;50.050;8.690;2023-12-14T01:15:27;5.10;99.90
22908;DHT22;11620;50.050;8.690;2023-12-14T01:18:14;5.10;99.90
22908;DHT22;11620;50.050;8.690;2023-12-14T01:21:00;5.10;99.90
22908;DHT22;11620;50.050;8.690;2023-12-14T01:23:47;5.10;99.90
22908;DHT22;11620;50.050;8.690;2023-12-14T01:26:35;5.10;99.90
22908;DHT22;11620;50.050;8.690;2023-12-14T01:29:21;5.00;99.90
22908;DHT22;11620;50.050;8.690;2023-12-14T01:32:07;4.80;99.90
22908;DHT22;11620;50.050;8.690;2023-12-14T01:34:54;4.80;99.90
22908;DHT22;11620;50.050;8.690;2023-12-14T01:37:40;4.70;99.90
22908;DHT22;11620;50.050;8.690;2023-12-14T01:40:26;4.80;99.90
22908;DHT22;11620;50.050;8.690;2023-12-14T01:43:13;4.80;99.90
22908;DHT22;11620;50.050;8.690;2023-12-14T01:45:59;4.80;99.90
22908;DHT22;11620;50.050;8.690;2023-12-14T01:48:45;4.80;99.90
22908;DHT22;11620;50.050;8.690;2023-12-14T01:51:32;4.80;99.90
22908;DHT22;11620;50.050;8.690;2023-12-14T01:54:19;4.90;99.90
22908;DHT22;11620;50.050;8.690;2023-12-14T01:57:06;4.90;99.90
22908;DHT22;11620;50.050;8.690;2023-12-14T01:59:52;4.90;99.90
22908;DHT22;11620;50.050;8.690;2023-12-14T02:02:38;4.90;99.90
22908;DHT22;11620;50.050;8.690;2023-12-14T02:05:26;4.90;99.90
22908;DHT22;11620;50.050;8.690;2023-12-14T02:08:12;4.90;99.90
22908;DHT22;11620;50.050;8.690;2023-12-14T02:10:58;5.00;99.90
22908;DHT22;11620;50.050;8.690;2023-12-14T02:13:45;5.00;99.90
22908;DHT22;11620;50.050;8.690;2023-12-14T02:16:31;5.00;99.90
22908;DHT22;11620;50.050;8.690;2023-12-14T02:19:18;5.10;99.90
22908;DHT22;11620;50.050;8.690;2023-12-14T02:22:04;5.10;99.90
22908;DHT22;11620;50.050;8.690;2023-12-14T02:24:50;5.10;99.90
22908;DHT22;11620;50.050;8.690;2023-12-14T02:27:37;5.10;99.90
22908;DHT22;11620;50.050;8.690;2023-12-14T02:30:23;5.10;99.90
22908;DHT22;11620;50.050;8.690;2023-12-14T02:33:09;5.10;99.90
22908;DHT22;11620;50.050;8.690;2023-12-14T02:35:56;5.10;99.90
22908;DHT22;11620;50.050;8.690;2023-12-14T02:38:42;5.10;99.90
22908;DHT22;11620;50.050;8.690;2023-12-14T02:41:28;5.10;99.90
22908;DHT22;11620;50.050;8.690;2023-12-14T02:44:15;5.10;99.90
22908;DHT22;11620;50.050;8.690;2023-12-14T02:47:01;5.10;99.90
22908;DHT22;11620;50.050;8.690;2023-12-14T02:49:47;5.10;99.90
22908;DHT22;11620;50.050;8.690;2023-12-14T02:52:34;5.00;99.90
22908;DHT22;11620;50.050;8.690;2023-12-14T02:55:20;5.10;99.90
22908;DHT22;11620;50.050;8.690;2023-12-14T02:58:06;5.10;99.90
22908;DHT22;11620;50.050;8.690;2023-12-14T03:00:52;5.10;99.90
22908;DHT22;11620;50.050;8.690;2023-12-14T03:03:39;5.10;99.90
22908;DHT22;11620;50.050;8.690;2023-12-14T03:06:25;5.10;99.90
22908;DHT22;11620;50.050;8.690;2023-12-14T03:09:12;5.10;99.90
22908;DHT22;11620;50.050;8.690;2023-12-14T03:11:59;5.10;99.90
22908;DHT22;11620;50.050;8.690;2023-12-14T03:14:46;5.00;99.90
22908;DHT22;11620;50.050;8.690;2023-12-14T03:17:32;5.00;99.90
22908;DHT22;11620;50.050;8.690;2023-12-14T03:20:19;5.00;99.90
22908;DHT22;11620;50.050;8.690;2023-12-14T03:23:05;4.90;99.90
22908;DHT22;11620;50.050;8.690;2023-12-14T03:25:51;4.80;99.90
22908;DHT22;11620;50.050;8.690;2023-12-14T03:28:38;4.80;99.90
22908;DHT22;11620;50.050;8.690;2023-12-14T03:31:24;4.70;99.90
22908;DHT22;11620;50.050;8.690;2023-12-14T03:34:11;4.60;99.90
22908;DHT22;11620;50.050;8.690;2023-12-14T03:36:58;4.60;99.90
22908;DHT22;11620;50.050;8.690;2023-12-14T03:39:44;4.60;99.90
22908;DHT22;11620;50.050;8.690;2023-12-14T03:42:30;4.60;99.90
22908;DHT22;11620;50.050;8.690;2023-12-14T03:45:17;4.70;99.90
22908;DHT22;11620;50.050;8.690;2023-12-14T03:48:03;4.60;99.90
22908;DHT22;11620;50.050;8.690;2023-12-14T03:50:49;4.60;99.90
22908;DHT22;11620;50.050;8.690;2023-12-14T03:53:36;4.60;99.90
22908;DHT22;11620;50.050;8.690;2023-12-14T03:56:22;4.70;99.90
22908;DHT22;11620;50.050;8.690;2023-12-14T03:59:08;4.50;99.90
22908;DHT22;11620;50.050;8.690;2023-12-14T04:01:55;4.40;99.90
22908;DHT22;11620;50.050;8.690;2023-12-14T04:04:41;4.40;99.90
22908;DHT22;11620;50.050;8.690;2023-12-14T04:07:27;4.10;99.90
22908;DHT22;11620;50.050;8.690;2023-12-14T04:10:14;4.10;99.90
22908;DHT22;11620;50.050;8.690;2023-12-14T04:13:00;4.20;99.90
22908;DHT22;11620;50.050;8.690;2023-12-14T04:15:46;4.20;99.90
22908;DHT22;11620;50.050;8.690;2023-12-14T04:18:33;4.30;99.90
22908;DHT22;11620;50.050;8.690;2023-12-14T04:21:19;4.20;99.90
22908;DHT22;11620;50.050;8.690;2023-12-14T04:24:05;4.10;99.90
22908;DHT22;11620;50.050;8.690;2023-12-14T04:26:52;4.20;99.90
22908;DHT22;11620;50.050;8.690;2023-12-14T04:29:38;4.30;99.90
22908;DHT22;11620;50.050;8.690;2023-12-14T04:32:24;4.40;99.90
22908;DHT22;11620;50.050;8.690;2023-12-14T04:35:11;4.30;99.90
22908;DHT22;11620;50.050;8.690;2023-12-14T04:37:57;4.30;99.90
22908;DHT22;11620;50.050;8.690;2023-12-14T04:40:43;4.30;99.90
22908;DHT22;11620;50.050;8.690;2023-12-14T04:43:30;4.40;99.90
22908;DHT22;11620;50.050;8.690;2023-12-14T04:46:18;4.40;99.90
22908;DHT22;11620;50.050;8.690;2023-12-14T04:49:04;4.50;99.90
22908;DHT22;11620;50.050;8.690;2023-12-14T04:51:50;4.50;99.90
22908;DHT22;11620;50.050;8.690;2023-12-14T04:54:37;4.50;99.90
22908;DHT22;11620;50.050;8.690;2023-12-14T04:57:26;4.50;99.90
22908;DHT22;11620;50.050;8.690;2023-12-14T05:00:13;4.50;99.90
22908;DHT22;11620;50.050;8.690;2023-12-14T05:02:59;4.50;99.90
22908;DHT22;11620;50.050;8.690;2023-12-14T05:05:45;4.50;99.90
22908;DHT22;11620;50.050;8.690;2023-12-14T05:08:32;4.60;99.90
22908;DHT22;11620;50.050;8.690;2023-12-14T05:11:18;4.50;99.90
22908;DHT22;11620;50.050;8.690;2023-12-14T05:14:04;4.60;99.90
22908;DHT22;11620;50.050;8.690;2023-12-14T05:16:50;4.60;99.90
22908;DHT22;11620;50.050;8.690;2023-12-14T05:19:37;4.60;99.90
22908;DHT22;11620;50.050;8.690;2023-12-14T05:22:23;4.60;99.90
22908;DHT22;11620;50.050;8.690;2023-12-14T05:25:10;4.60;99.90
22908;DHT22;11620;50.050;8.690;2023-12-14T05:27:56;4.50;99.90
22908;DHT22;11620;50.050;8.690;2023-12-14T05:30:42;4.40;99.90
22908;DHT22;11620;50.050;8.690;2023-12-14T05:33:29;4.40;99.90
22908;DHT22;11620;50.050;8.690;2023-12-14T05:36:17;4.30;99.90
22908;DHT22;11620;50.050;8.690;2023-12-14T05:39:03;4.10;99.90
22908;DHT22;11620;50.050;8.690;2023-12-14T05:41:50;4.00;99.90
22908;DHT22;11620;50.050;8.690;2023-12-14T05:44:37;4.00;99.90
22908;DHT22;11620;50.050;8.690;2023-12-14T05:47:23;4.10;99.90
22908;DHT22;11620;50.050;8.690;2023-12-14T05:50:11;4.10;99.90
22908;DHT22;11620;50.050;8.690;2023-12-14T05:52:58;4.20;99.90
22908;DHT22;11620;50.050;8.690;2023-12-14T05:55:44;4.20;99.90
22908;DHT22;11620;50.050;8.690;2023-12-14T05:58:31;4.30;99.90
22908;DHT22;11620;50.050;8.690;2023-12-14T06:01:20;4.30;99.90
22908;DHT22;11620;50.050;8.690;2023-12-14T06:04:06;4.40;99.90
22908;DHT22;11620;50.050;8.690;2023-12-14T06:06:53;4.30;99.90
22908;DHT22;11620;50.050;8.690;2023-12-14T06:09:39;4.40;99.90
22908;DHT22;11620;50.050;8.690;2023-12-14T06:12:26;4.40;99.90
22908;DHT22;11620;50.050;8.690;2023-12-14T06:15:12;4.40;99.90
22908;DHT22;11620;50.050;8.690;2023-12-14T06:17:58;4.40;99.90
22908;DHT22;11620;50.050;8.690;2023-12-14T06:20:45;4.30;99.90
22908;DHT22;11620;50.050;8.690;2023-12-14T06:23:31;4.40;99.90
22908;DHT22;11620;50.050;8.690;2023-12-14T06:26:17;4.30;99.90
22908;DHT22;11620;50.050;8.690;2023-12-14T06:29:04;4.30;99.90
22908;DHT22;11620;50.050;8.690;2023-12-14T06:31:51;4.30;99.90
22908;DHT22;11620;50.050;8.690;2023-12-14T06:34:37;4.20;99.90
22908;DHT22;11620;50.050;8.690;2023-12-14T06:37:23;4.20;99.90
22908;DHT22;11620;50.050;8.690;2023-12-14T06:40:10;4.10;99.90
22908;DHT22;11620;50.050;8.690;2023-12-14T06:42:57;4.10;99.90
22908;DHT22;11620;50.050;8.690;2023-12-14T06:45:43;4.10;99.90
22908;DHT22;11620;50.050;8.690;2023-12-14T06:48:29;4.20;99.90
22908;DHT22;11620;50.050;8.690;2023-12-14T06:51:16;4.10;99.90
22908;DHT22;11620;50.050;8.690;2023-12-14T06:54:02;4.10;99.90
22908;DHT22;11620;50.050;8.690;2023-12-14T06:56:48;4.20;99.90
22908;DHT22;11620;50.050;8.690;2023-12-14T06:59:35;4.20;99.90
22908;DHT22;11620;50.050;8.690;2023-12-14T07:02:21;4.20;99.90
22908;DHT22;11620;50.050;8.690;2023-12-14T07:05:07;4.30;99.90
22908;DHT22;11620;50.050;8.690;2023-12-14T07:07:54;4.30;99.90
22908;DHT22;11620;50.050;8.690;2023-12-14T07:10:43;4.40;99.90
22908;DHT22;11620;50.050;8.690;2023-12-14T07:13:30;4.50;99.90
22908;DHT22;11620;50.050;8.690;2023-12-14T07:16:16;4.50;99.90
22908;DHT22;11620;50.050;8.690;2023-12-14T07:19:03;4.60;99.90
22908;DHT22;11620;50.050;8.690;2023-12-14T07:21:50;4.60;99.90
22908;DHT22;11620;50.050;8.690;2023-12-14T07:24:36;4.50;99.90
22908;DHT22;11620;50.050;8.690;2023-12-14T07:27:22;4.40;99.90
22908;DHT22;11620;50.050;8.690;2023-12-14T07:30:09;4.30;99.90
22908;DHT22;11620;50.050;8.690;2023-12-14T07:32:56;4.40;99.90
22908;DHT22;11620;50.050;8.690;2023-12-14T07:35:42;4.40;99.90
22908;DHT22;11620;50.050;8.690;2023-12-14T07:38:29;4.50;99.90
22908;DHT22;11620;50.050;8.690;2023-12-14T07:41:15;4.50;99.90
22908;DHT22;11620;50.050;8.690;2023-12-14T07:44:01;4.60;99.90
22908;DHT22;11620;50.050;8.690;2023-12-14T07:46:48;4.70;99.90
22908;DHT22;11620;50.050;8.690;2023-12-14T07:49:35;4.70;99.90
22908;DHT22;11620;50.050;8.690;2023-12-14T07:52:21;4.80;99.90
22908;DHT22;11620;50.050;8.690;2023-12-14T07:55:07;4.80;99.90
22908;DHT22;11620;50.050;8.690;2023-12-14T07:57:54;4.80;99.90
22908;DHT22;11620;50.050;8.690;2023-12-14T08:00:40;4.80;99.90
22908;DHT22;11620;50.050;8.690;2023-12-14T08:03:26;4.80;99.90
22908;DHT22;11620;50.050;8.690;2023-12-14T08:06:13;4.70;99.90
22908;DHT22;11620;50.050;8.690;2023-12-14T08:08:59;4.70;99.90
22908;DHT22;11620;50.050;8.690;2023-12-14T08:11:45;4.70;99.90
22908;DHT22;11620;50.050;8.690;2023-12-14T08:14:35;4.70;99.90
22908;DHT22;11620;50.050;8.690;2023-12-14T08:17:23;4.70;99.90
22908;DHT22;11620;50.050;8.690;2023-12-14T08:20:10;4.70;99.90
22908;DHT22;11620;50.050;8.690;2023-12-14T08:22:57;4.70;99.90
22908;DHT22;11620;50.050;8.690;2023-12-14T08:25:44;4.70;99.90
22908;DHT22;11620;50.050;8.690;2023-12-14T08:28:30;4.80;99.90
22908;DHT22;11620;50.050;8.690;2023-12-14T08:31:17;4.80;99.90
22908;DHT22;11620;50.050;8.690;2023-12-14T08:34:03;4.80;99.90
22908;DHT22;11620;50.050;8.690;2023-12-14T08:36:50;4.80;99.90
22908;DHT22;11620;50.050;8.690;2023-12-14T08:39:36;4.90;99.90
22908;DHT22;11620;50.050;8.690;2023-12-14T08:42:22;4.90;99.90
22908;DHT22;11620;50.050;8.690;2023-12-14T08:45:09;5.00;99.90
22908;DHT22;11620;50.050;8.690;2023-12-14T08:47:57;5.10;99.90
22908;DHT22;11620;50.050;8.690;2023-12-14T08:50:44;5.00;99.90
22908;DHT22;11620;50.050;8.690;2023-12-14T08:53:30;5.10;99.90
22908;DHT22;11620;50.050;8.690;2023-12-14T08:56:17;5.20;99.90
22908;DHT22;11620;50.050;8.690;2023-12-14T08:59:03;5.20;99.90
22908;DHT22;11620;50.050;8.690;2023-12-14T09:01:50;5.20;99.90
22908;DHT22;11620;50.050;8.690;2023-12-14T09:04:36;5.30;99.90
22908;DHT22;11620;50.050;8.690;2023-12-14T09:07:22;5.30;99.90
22908;DHT22;11620;50.050;8.690;2023-12-14T09:10:09;5.30;99.90
22908;DHT22;11620;50.050;8.690;2023-12-14T09:12:55;5.30;99.90
22908;DHT22;11620;50.050;8.690;2023-12-14T09:15:41;5.40;99.90
22908;DHT22;11620;50.050;8.690;2023-12-14T09:18:28;5.40;99.90
22908;DHT22;11620;50.050;8.690;2023-12-14T09:21:14;5.40;99.90
22908;DHT22;11620;50.050;8.690;2023-12-14T09:24:01;5.50;99.90
22908;DHT22;11620;50.050;8.690;2023-12-14T09:26:47;5.50;99.90
22908;DHT22;11620;50.050;8.690;2023-12-14T09:29:33;5.50;99.90
22908;DHT22;11620;50.050;8.690;2023-12-14T09:32:20;5.60;99.90
22908;DHT22;11620;50.050;8.690;2023-12-14T09:35:06;5.60;99.90
22908;DHT22;11620;50.050;8.690;2023-12-14T09:37:53;5.70;99.90
22908;DHT22;11620;50.050;8.690;2023-12-14T09:40:40;5.70;99.90
22908;DHT22;11620;50.050;8.690;2023-12-14T09:43:26;5.80;99.90
22908;DHT22;11620;50.050;8.690;2023-12-14T09:46:13;5.80;99.90
22908;DHT22;11620;50.050;8.690;2023-12-14T09:49:04;5.80;99.90
22908;DHT22;11620;50.050;8.690;2023-12-14T09:51:50;5.80;99.90
22908;DHT22;11620;50.050;8.690;2023-12-14T09:54:36;5.80;99.90
22908;DHT22;11620;50.050;8.690;2023-12-14T09:57:23;5.80;99.90
22908;DHT22;11620;50.050;8.690;2023-12-14T10:00:12;5.70;99.90
22908;DHT22;11620;50.050;8.690;2023-12-14T10:03:20;5.60;99.90
22908;DHT22;11620;50.050;8.690;2023-12-14T10:06:06;5.60;99.90
22908;DHT22;11620;50.050;8.690;2023-12-14T10:08:56;5.60;99.90
22908;DHT22;11620;50.050;8.690;2023-12-14T10:11:43;5.70;99.90
22908;DHT22;11620;50.050;8.690;2023-12-14T10:14:29;5.70;99.90
22908;DHT22;11620;50.050;8.690;2023-12-14T10:17:19;5.70;99.90
22908;DHT22;11620;50.050;8.690;2023-12-14T10:20:06;5.70;99.90
22908;DHT22;11620;50.050;8.690;2023-12-14T10:22:55;5.70;99.90
22908;DHT22;11620;50.050;8.690;2023-12-14T10:25:42;5.80;99.90
22908;DHT22;11620;50.050;8.690;2023-12-14T10:28:28;5.70;99.90
22908;DHT22;11620;50.050;8.690;2023-12-14T10:31:15;5.80;99.90
22908;DHT22;11620;50.050;8.690;2023-12-14T10:34:01;5.80;99.90
22908;DHT22;11620;50.050;8.690;2023-12-14T10:36:48;5.70;99.90
22908;DHT22;11620;50.050;8.690;2023-12-14T10:39:34;5.70;99.90
22908;DHT22;11620;50.050;8.690;2023-12-14T10:42:21;5.80;99.90
22908;DHT22;11620;50.050;8.690;2023-12-14T10:45:11;5.70;99.90
22908;DHT22;11620;50.050;8.690;2023-12-14T10:47:59;5.70;99.90
22908;DHT22;11620;50.050;8.690;2023-12-14T10:50:46;5.70;99.90
22908;DHT22;11620;50.050;8.690;2023-12-14T10:53:35;5.80;99.90
22908;DHT22;11620;50.050;8.690;2023-12-14T10:56:21;5.90;99.90
22908;DHT22;11620;50.050;8.690;2023-12-14T10:59:08;5.90;99.90
22908;DHT22;11620;50.050;8.690;2023-12-14T11:01:54;6.00;99.90
22908;DHT22;11620;50.050;8.690;2023-12-14T11:05:00;6.00;99.90
22908;DHT22;11620;50.050;8.690;2023-12-14T11:07:59;6.00;99.90
22908;DHT22;11620;50.050;8.690;2023-12-14T11:10:57;6.10;99.90
22908;DHT22;11620;50.050;8.690;2023-12-14T11:13:52;6.10;99.90
22908;DHT22;11620;50.050;8.690;2023-12-14T11:16:38;6.10;99.90
22908;DHT22;11620;50.050;8.690;2023-12-14T11:19:33;6.10;99.90
22908;DHT22;11620;50.050;8.690;2023-12-14T11:22:27;6.10;99.90
22908;DHT22;11620;50.050;8.690;2023-12-14T11:25:13;6.10;99.90
22908;DHT22;11620;50.050;8.690;2023-12-14T11:28:03;6.10;99.90
22908;DHT22;11620;50.050;8.690;2023-12-14T11:30:50;6.20;99.90
22908;DHT22;11620;50.050;8.690;2023-12-14T11:33:37;6.30;99.90
22908;DHT22;11620;50.050;8.690;2023-12-14T11:36:25;6.30;99.90
22908;DHT22;11620;50.050;8.690;2023-12-14T11:39:11;6.30;99.90
22908;DHT22;11620;50.050;8.690;2023-12-14T11:42:07;6.30;99.90
22908;DHT22;11620;50.050;8.690;2023-12-14T11:44:56;6.40;99.90
22908;DHT22;11620;50.050;8.690;2023-12-14T11:47:42;6.30;99.90
22908;DHT22;11620;50.050;8.690;2023-12-14T11:50:29;6.40;99.90
22908;DHT22;11620;50.050;8.690;2023-12-14T11:53:15;6.40;99.90
22908;DHT22;11620;50.050;8.690;2023-12-14T11:56:01;6.50;99.90
22908;DHT22;11620;50.050;8.690;2023-12-14T11:58:49;6.40;99.90
22908;DHT22;11620;50.050;8.690;2023-12-14T12:01:35;6.50;99.90
22908;DHT22;11620;50.050;8.690;2023-12-14T12:04:24;6.50;99.90
22908;DHT22;11620;50.050;8.690;2023-12-14T12:07:10;6.50;99.90
22908;DHT22;11620;50.050;8.690;2023-12-14T12:09:58;6.60;99.90
22908;DHT22;11620;50.050;8.690;2023-12-14T12:12:44;6.60;99.90
22908;DHT22;11620;50.050;8.690;2023-12-14T12:15:34;6.70;99.90
22908;DHT22;11620;50.050;8.690;2023-12-14T12:18:24;6.60;99.90
22908;DHT22;11620;50.050;8.690;2023-12-14T12:21:12;6.60;99.90
22908;DHT22;11620;50.050;8.690;2023-12-14T12:23:58;6.50;99.90
22908;DHT22;11620;50.050;8.690;2023-12-14T12:26:45;6.50;99.90
22908;DHT22;11620;50.050;8.690;2023-12-14T12:29:31;6.50;99.90
22908;DHT22;11620;50.050;8.690;2023-12-14T12:32:17;6.40;99.90
22908;DHT22;11620;50.050;8.690;2023-12-14T12:35:04;6.40;99.90
22908;DHT22;11620;50.050;8.690;2023-12-14T12:37:51;6.40;99.90
22908;DHT22;11620;50.050;8.690;2023-12-14T12:40:40;6.40;99.90
22908;DHT22;11620;50.050;8.690;2023-12-14T12:43:26;6.40;99.90
22908;DHT22;11620;50.050;8.690;2023-12-14T12:46:13;6.40;99.90
22908;DHT22;11620;50.050;8.690;2023-12-14T12:49:01;6.50;99.90
22908;DHT22;11620;50.050;8.690;2023-12-14T12:51:48;6.50;99.90
22908;DHT22;11620;50.050;8.690;2023-12-14T12:54:34;6.50;99.90
22908;DHT22;11620;50.050;8.690;2023-12-14T12:57:21;6.60;99.90
22908;DHT22;11620;50.050;8.690;2023-12-14T13:00:08;6.60;99.90
22908;DHT22;11620;50.050;8.690;2023-12-14T13:02:57;6.60;99.90
22908;DHT22;11620;50.050;8.690;2023-12-14T13:05:43;6.60;99.90
22908;DHT22;11620;50.050;8.690;2023-12-14T13:08:29;6.60;99.90
22908;DHT22;11620;50.050;8.690;2023-12-14T13:11:17;6.70;99.90
22908;DHT22;11620;50.050;8.690;2023-12-14T13:14:03;6.70;99.90
22908;DHT22;11620;50.050;8.690;2023-12-14T13:16:53;6.70;99.90
22908;DHT22;11620;50.050;8.690;2023-12-14T13:19:40;6.60;99.90
22908;DHT22;11620;50.050;8.690;2023-12-14T13:22:26;6.60;99.90
22908;DHT22;11620;50.050;8.690;2023-12-14T13:25:12;6.60;99.90
22908;DHT22;11620;50.050;8.690;2023-12-14T13:27:59;6.50;99.90
22908;DHT22;11620;50.050;8.690;2023-12-14T13:30:45;6.60;99.90
22908;DHT22;11620;50.050;8.690;2023-12-14T13:33:32;6.60;99.90
22908;DHT22;11620;50.050;8.690;2023-12-14T13:36:18;6.50;99.90
22908;DHT22;11620;50.050;8.690;2023-12-14T13:39:05;6.60;99.90
22908;DHT22;11620;50.050;8.690;2023-12-14T13:41:52;6.60;99.90
22908;DHT22;11620;50.050;8.690;2023-12-14T13:44:39;6.60;99.90
22908;DHT22;11620;50.050;8.690;2023-12-14T13:47:26;6.60;99.90
22908;DHT22;11620;50.050;8.690;2023-12-14T13:50:12;6.70;99.90
22908;DHT22;11620;50.050;8.690;2023-12-14T13:52:59;6.60;99.90
22908;DHT22;11620;50.050;8.690;2023-12-14T13:55:45;6.70;99.90
22908;DHT22;11620;50.050;8.690;2023-12-14T13:58:32;6.70;99.90
22908;DHT22;11620;50.050;8.690;2023-12-14T14:01:20;6.70;99.90
22908;DHT22;11620;50.050;8.690;2023-12-14T14:04:07;6.80;99.90
22908;DHT22;11620;50.050;8.690;2023-12-14T14:06:53;6.80;99.90
22908;DHT22;11620;50.050;8.690;2023-12-14T14:09:39;6.80;99.90
22908;DHT22;11620;50.050;8.690;2023-12-14T14:12:25;6.70;99.90
22908;DHT22;11620;50.050;8.690;2023-12-14T14:15:12;6.80;99.90
22908;DHT22;11620;50.050;8.690;2023-12-14T14:17:58;6.80;99.90
22908;DHT22;11620;50.050;8.690;2023-12-14T14:20:46;6.80;99.90
22908;DHT22;11620;50.050;8.690;2023-12-14T14:23:32;6.80;99.90
22908;DHT22;11620;50.050;8.690;2023-12-14T14:26:18;6.70;99.90
22908;DHT22;11620;50.050;8.690;2023-12-14T14:29:04;6.70;99.90
22908;DHT22;11620;50.050;8.690;2023-12-14T14:31:51;6.70;99.90
22908;DHT22;11620;50.050;8.690;2023-12-14T14:34:37;6.60;99.90
22908;DHT22;11620;50.050;8.690;2023-12-14T14:37:23;6.60;99.90
22908;DHT22;11620;50.050;8.690;2023-12-14T14:40:13;6.60;99.90
22908;DHT22;11620;50.050;8.690;2023-12-14T14:43:00;6.60;99.90
22908;DHT22;11620;50.050;8.690;2023-12-14T14:45:46;6.50;99.90
22908;DHT22;11620;50.050;8.690;2023-12-14T14:48:32;6.40;99.90
22908;DHT22;11620;50.050;8.690;2023-12-14T14:51:19;6.30;99.90
22908;DHT22;11620;50.050;8.690;2023-12-14T14:54:05;6.30;99.90
22908;DHT22;11620;50.050;8.690;2023-12-14T14:56:51;6.20;99.90
22908;DHT22;11620;50.050;8.690;2023-12-14T14:59:38;6.10;99.90
22908;DHT22;11620;50.050;8.690;2023-12-14T15:02:24;6.10;99.90
22908;DHT22;11620;50.050;8.690;2023-12-14T15:05:10;6.10;99.90
22908;DHT22;11620;50.050;8.690;2023-12-14T15:07:57;6.00;99.90
22908;DHT22;11620;50.050;8.690;2023-12-14T15:10:45;6.00;99.90
22908;DHT22;11620;50.050;8.690;2023-12-14T15:13:31;6.00;99.90
22908;DHT22;11620;50.050;8.690;2023-12-14T15:16:18;5.90;99.90
22908;DHT22;11620;50.050;8.690;2023-12-14T15:19:04;5.90;99.90
22908;DHT22;11620;50.050;8.690;2023-12-14T15:21:51;5.90;99.90
22908;DHT22;11620;50.050;8.690;2023-12-14T15:24:37;5.80;99.90
22908;DHT22;11620;50.050;8.690;2023-12-14T15:27:23;5.80;99.90
22908;DHT22;11620;50.050;8.690;2023-12-14T15:30:11;5.90;99.90
22908;DHT22;11620;50.050;8.690;2023-12-14T15:32:58;5.80;99.90
22908;DHT22;11620;50.050;8.690;2023-12-14T15:35:44;5.70;99.90
22908;DHT22;11620;50.050;8.690;2023-12-14T15:38:29;5.80;99.90
22908;DHT22;11620;50.050;8.690;2023-12-14T15:41:15;5.80;99.90
22908;DHT22;11620;50.050;8.690;2023-12-14T15:44:02;5.70;99.90
22908;DHT22;11620;50.050;8.690;2023-12-14T15:46:48;5.70;99.90
22908;DHT22;11620;50.050;8.690;2023-12-14T15:49:34;5.60;99.90
22908;DHT22;11620;50.050;8.690;2023-12-14T15:52:21;5.50;99.90
22908;DHT22;11620;50.050;8.690;2023-12-14T15:55:07;5.40;99.90
22908;DHT22;11620;50.050;8.690;2023-12-14T15:57:54;5.40;99.90
22908;DHT22;11620;50.050;8.690;2023-12-14T16:00:40;5.30;99.90
22908;DHT22;11620;50.050;8.690;2023-12-14T16:03:26;5.20;99.90
22908;DHT22;11620;50.050;8.690;2023-12-14T16:06:13;5.20;99.90
22908;DHT22;11620;50.050;8.690;2023-12-14T16:09:00;5.20;99.90
22908;DHT22;11620;50.050;8.690;2023-12-14T16:11:47;5.10;99.90
22908;DHT22;11620;50.050;8.690;2023-12-14T16:14:33;5.10;99.90
22908;DHT22;11620;50.050;8.690;2023-12-14T16:17:19;5.10;99.90
22908;DHT22;11620;50.050;8.690;2023-12-14T16:20:06;5.10;99.90
22908;DHT22;11620;50.050;8.690;2023-12-14T16:22:53;5.10;99.90
22908;DHT22;11620;50.050;8.690;2023-12-14T16:25:39;5.00;99.90
22908;DHT22;11620;50.050;8.690;2023-12-14T16:28:25;5.00;99.90
22908;DHT22;11620;50.050;8.690;2023-12-14T16:31:12;5.00;99.90
22908;DHT22;11620;50.050;8.690;2023-12-14T16:33:58;5.00;99.90
22908;DHT22;11620;50.050;8.690;2023-12-14T16:36:48;5.00;99.90
22908;DHT22;11620;50.050;8.690;2023-12-14T16:39:34;5.00;99.90
22908;DHT22;11620;50.050;8.690;2023-12-14T16:42:21;5.00;99.90
22908;DHT22;11620;50.050;8.690;2023-12-14T16:45:08;5.10;99.90
22908;DHT22;11620;50.050;8.690;2023-12-14T16:47:56;5.10;99.90
22908;DHT22;11620;50.050;8.690;2023-12-14T16:50:43;5.10;99.90
22908;DHT22;11620;50.050;8.690;2023-12-14T16:53:29;5.10;99.90
22908;DHT22;11620;50.050;8.690;2023-12-14T16:56:18;5.10;99.90
22908;DHT22;11620;50.050;8.690;2023-12-14T16:59:05;5.00;99.90
22908;DHT22;11620;50.050;8.690;2023-12-14T17:01:51;5.00;99.90
22908;DHT22;11620;50.050;8.690;2023-12-14T17:04:37;5.00;99.90
22908;DHT22;11620;50.050;8.690;2023-12-14T17:07:24;4.90;99.90
22908;DHT22;11620;50.050;8.690;2023-12-14T17:10:10;4.90;99.90
22908;DHT22;11620;50.050;8.690;2023-12-14T17:12:57;4.90;99.90
22908;DHT22;11620;50.050;8.690;2023-12-14T17:15:43;4.90;99.90
22908;DHT22;11620;50.050;8.690;2023-12-14T17:18:30;4.80;99.90
22908;DHT22;11620;50.050;8.690;2023-12-14T17:21:24;4.80;99.90
22908;DHT22;11620;50.050;8.690;2023-12-14T17:24:10;4.80;99.90
22908;DHT22;11620;50.050;8.690;2023-12-14T17:26:57;4.80;99.90
22908;DHT22;11620;50.050;8.690;2023-12-14T17:29:44;4.80;99.90
22908;DHT22;11620;50.050;8.690;2023-12-14T17:32:30;4.80;99.90
22908;DHT22;11620;50.050;8.690;2023-12-14T17:35:16;4.80;99.90
22908;DHT22;11620;50.050;8.690;2023-12-14T17:38:03;4.70;99.90
22908;DHT22;11620;50.050;8.690;2023-12-14T17:40:49;4.70;99.90
22908;DHT22;11620;50.050;8.690;2023-12-14T17:43:36;4.70;99.90
22908;DHT22;11620;50.050;8.690;2023-12-14T17:46:23;4.70;99.90
22908;DHT22;11620;50.050;8.690;2023-12-14T17:49:09;4.70;99.90